sensor_id;sensor_type;location;lat;lon;timestamp;temperature;humidity
21387;DHT22;10854;45.922;6.716;2022-07-01T00:33:27;15.20;99.90
21387;DHT22;10854;45.922;6.716;2022-07-01T00:36:04;15.20;99.90
21387;DHT22;10854;45.922;6.716;2022-07-01T00:38:34;15.20;99.90
21387;DHT22;10854;45.922;6.716;2022-07-01T00:41:16;15.10;99.90
21387;DHT22;10854;45.922;6.716;2022-07-01T00:43:51;15.10;99.90
21387;DHT22;10854;45.922;6.716;2022-07-01T00:46:24;15.10;99.90
21387;DHT22;10854;45.922;6.716;2022-07-01T00:48:58;15.20;99.90
21387;DHT22;10854;45.922;6.716;2022-07-01T00:51:32;15.10;99.90
21387;DHT22;10854;45.922;6.716;2022-07-01T00:54:06;15.20;99.90
21387;DHT22;10854;45.922;6.716;2022-07-01T00:56:37;15.10;99.90
21387;DHT22;10854;45.922;6.716;2022-07-01T00:59:12;15.10;99.90
21387;DHT22;10854;45.922;6.716;2022-07-01T01:02:13;15.10;99.90
21387;DHT22;10854;45.922;6.716;2022-07-01T01:04:59;15.00;99.90
21387;DHT22;10854;45.922;6.716;2022-07-01T01:08:13;15.00;99.90
21387;DHT22;10854;45.922;6.716;2022-07-01T01:11:06;14.90;99.90
21387;DHT22;10854;45.922;6.716;2022-07-01T01:13:40;14.90;99.90
21387;DHT22;10854;45.922;6.716;2022-07-01T01:16:19;14.90;99.90
21387;DHT22;10854;45.922;6.716;2022-07-01T01:19:56;14.90;99.90
21387;DHT22;10854;45.922;6.716;2022-07-01T01:23:14;14.90;99.90
21387;DHT22;10854;45.922;6.716;2022-07-01T01:26:19;14.90;99.90
21387;DHT22;10854;45.922;6.716;2022-07-01T01:29:41;15.00;99.90
21387;DHT22;10854;45.922;6.716;2022-07-01T01:32:54;15.00;99.90
21387;DHT22;10854;45.922;6.716;2022-07-01T01:35:29;15.00;99.90
21387;DHT22;10854;45.922;6.716;2022-07-01T01:38:12;15.00;99.90
21387;DHT22;10854;45.922;6.716;2022-07-01T01:40:59;15.00;99.90
21387;DHT22;10854;45.922;6.716;2022-07-01T01:43:36;14.90;99.90
21387;DHT22;10854;45.922;6.716;2022-07-01T01:46:13;14.90;99.90
21387;DHT22;10854;45.922;6.716;2022-07-01T01:49:30;14.90;99.90
21387;DHT22;10854;45.922;6.716;2022-07-01T01:52:40;14.80;99.90
21387;DHT22;10854;45.922;6.716;2022-07-01T01:55:51;14.70;99.90
21387;DHT22;10854;45.922;6.716;2022-07-01T01:59:10;14.70;99.90
21387;DHT22;10854;45.922;6.716;2022-07-01T02:02:07;14.60;99.90
21387;DHT22;10854;45.922;6.716;2022-07-01T02:05:00;14.50;99.90
21387;DHT22;10854;45.922;6.716;2022-07-01T02:07:34;14.60;99.90
21387;DHT22;10854;45.922;6.716;2022-07-01T02:10:35;14.50;99.90
21387;DHT22;10854;45.922;6.716;2022-07-01T02:13:15;14.50;99.90
21387;DHT22;10854;45.922;6.716;2022-07-01T02:15:59;14.50;99.90
21387;DHT22;10854;45.922;6.716;2022-07-01T02:19:32;14.40;99.90
21387;DHT22;10854;45.922;6.716;2022-07-01T02:26:40;14.30;99.90
21387;DHT22;10854;45.922;6.716;2022-07-01T02:30:10;14.20;99.90
21387;DHT22;10854;45.922;6.716;2022-07-01T02:32:42;14.10;99.90
21387;DHT22;10854;45.922;6.716;2022-07-01T02:35:19;14.10;99.90
21387;DHT22;10854;45.922;6.716;2022-07-01T02:37:49;14.10;99.90
21387;DHT22;10854;45.922;6.716;2022-07-01T02:40:20;14.10;99.90
21387;DHT22;10854;45.922;6.716;2022-07-01T02:42:50;14.10;99.90
21387;DHT22;10854;45.922;6.716;2022-07-01T02:45:20;14.10;99.90
21387;DHT22;10854;45.922;6.716;2022-07-01T02:47:50;14.10;99.90
21387;DHT22;10854;45.922;6.716;2022-07-01T02:50:20;14.10;99.90
21387;DHT22;10854;45.922;6.716;2022-07-01T02:52:52;14.10;99.90
21387;DHT22;10854;45.922;6.716;2022-07-01T02:55:23;14.10;99.90
21387;DHT22;10854;45.922;6.716;2022-07-01T02:57:52;14.10;99.90
21387;DHT22;10854;45.922;6.716;2022-07-01T03:00:21;14.10;99.90
21387;DHT22;10854;45.922;6.716;2022-07-01T03:02:50;14.10;99.90
21387;DHT22;10854;45.922;6.716;2022-07-01T03:05:19;14.10;99.90
21387;DHT22;10854;45.922;6.716;2022-07-01T03:07:50;14.10;99.90
21387;DHT22;10854;45.922;6.716;2022-07-01T03:10:19;14.10;99.90
21387;DHT22;10854;45.922;6.716;2022-07-01T03:12:47;14.10;99.90
21387;DHT22;10854;45.922;6.716;2022-07-01T03:15:17;14.10;99.90
21387;DHT22;10854;45.922;6.716;2022-07-01T03:17:46;14.10;99.90
21387;DHT22;10854;45.922;6.716;2022-07-01T03:20:18;14.10;99.90
21387;DHT22;10854;45.922;6.716;2022-07-01T03:22:47;14.10;99.90
21387;DHT22;10854;45.922;6.716;2022-07-01T03:25:16;14.10;99.90
21387;DHT22;10854;45.922;6.716;2022-07-01T03:27:46;14.10;99.90
21387;DHT22;10854;45.922;6.716;2022-07-01T03:30:19;14.10;99.90
21387;DHT22;10854;45.922;6.716;2022-07-01T03:32:47;14.10;99.90
21387;DHT22;10854;45.922;6.716;2022-07-01T03:35:16;14.10;99.90
21387;DHT22;10854;45.922;6.716;2022-07-01T03:38:04;14.10;99.90
21387;DHT22;10854;45.922;6.716;2022-07-01T03:40:33;14.00;99.90
21387;DHT22;10854;45.922;6.716;2022-07-01T03:43:02;14.00;99.90
21387;DHT22;10854;45.922;6.716;2022-07-01T03:45:32;14.00;99.90
21387;DHT22;10854;45.922;6.716;2022-07-01T03:48:00;14.00;99.90
21387;DHT22;10854;45.922;6.716;2022-07-01T03:50:31;14.00;99.90
21387;DHT22;10854;45.922;6.716;2022-07-01T03:52:59;14.00;99.90
21387;DHT22;10854;45.922;6.716;2022-07-01T03:55:47;14.10;99.90
21387;DHT22;10854;45.922;6.716;2022-07-01T03:58:15;14.00;99.90
21387;DHT22;10854;45.922;6.716;2022-07-01T04:00:44;14.00;99.90
21387;DHT22;10854;45.922;6.716;2022-07-01T04:03:13;14.00;99.90
21387;DHT22;10854;45.922;6.716;2022-07-01T04:05:46;14.00;99.90
21387;DHT22;10854;45.922;6.716;2022-07-01T04:08:24;14.00;99.90
21387;DHT22;10854;45.922;6.716;2022-07-01T04:10:58;14.00;99.90
21387;DHT22;10854;45.922;6.716;2022-07-01T04:13:47;14.00;99.90
21387;DHT22;10854;45.922;6.716;2022-07-01T04:16:38;13.90;99.90
21387;DHT22;10854;45.922;6.716;2022-07-01T04:19:28;13.90;99.90
21387;DHT22;10854;45.922;6.716;2022-07-01T04:22:26;13.90;99.90
21387;DHT22;10854;45.922;6.716;2022-07-01T04:29:59;13.90;99.90
21387;DHT22;10854;45.922;6.716;2022-07-01T04:33:31;13.90;99.90
21387;DHT22;10854;45.922;6.716;2022-07-01T04:36:57;13.80;99.90
21387;DHT22;10854;45.922;6.716;2022-07-01T04:39:39;13.80;99.90
21387;DHT22;10854;45.922;6.716;2022-07-01T04:43:25;13.80;99.90
21387;DHT22;10854;45.922;6.716;2022-07-01T04:47:04;13.90;99.90
21387;DHT22;10854;45.922;6.716;2022-07-01T04:49:43;13.80;99.90
21387;DHT22;10854;45.922;6.716;2022-07-01T04:52:24;13.80;99.90
21387;DHT22;10854;45.922;6.716;2022-07-01T04:54:55;13.80;99.90
21387;DHT22;10854;45.922;6.716;2022-07-01T04:57:24;13.80;99.90
21387;DHT22;10854;45.922;6.716;2022-07-01T04:59:53;13.80;99.90
21387;DHT22;10854;45.922;6.716;2022-07-01T05:02:24;13.90;99.90
21387;DHT22;10854;45.922;6.716;2022-07-01T05:05:00;13.90;99.90
21387;DHT22;10854;45.922;6.716;2022-07-01T05:08:00;13.90;99.90
21387;DHT22;10854;45.922;6.716;2022-07-01T05:10:29;13.90;99.90
21387;DHT22;10854;45.922;6.716;2022-07-01T05:13:04;13.90;99.90
21387;DHT22;10854;45.922;6.716;2022-07-01T05:16:01;14.00;99.90
21387;DHT22;10854;45.922;6.716;2022-07-01T05:18:40;14.00;99.90
21387;DHT22;10854;45.922;6.716;2022-07-01T05:21:38;14.00;99.90
21387;DHT22;10854;45.922;6.716;2022-07-01T05:24:35;14.10;99.90
21387;DHT22;10854;45.922;6.716;2022-07-01T05:27:17;14.10;99.90
21387;DHT22;10854;45.922;6.716;2022-07-01T05:29:47;14.10;99.90
21387;DHT22;10854;45.922;6.716;2022-07-01T05:32:22;14.10;99.90
21387;DHT22;10854;45.922;6.716;2022-07-01T05:34:54;14.10;99.90
21387;DHT22;10854;45.922;6.716;2022-07-01T05:37:52;14.00;99.90
21387;DHT22;10854;45.922;6.716;2022-07-01T05:40:29;14.00;99.90
21387;DHT22;10854;45.922;6.716;2022-07-01T05:43:56;14.00;99.90
21387;DHT22;10854;45.922;6.716;2022-07-01T05:46:44;14.10;99.90
21387;DHT22;10854;45.922;6.716;2022-07-01T05:50:04;14.10;99.90
21387;DHT22;10854;45.922;6.716;2022-07-01T05:52:33;14.10;99.90
21387;DHT22;10854;45.922;6.716;2022-07-01T05:55:12;14.10;99.90
21387;DHT22;10854;45.922;6.716;2022-07-01T05:58:13;14.10;99.90
21387;DHT22;10854;45.922;6.716;2022-07-01T06:00:43;14.10;99.90
21387;DHT22;10854;45.922;6.716;2022-07-01T06:03:13;14.10;99.90
21387;DHT22;10854;45.922;6.716;2022-07-01T06:05:43;14.10;99.90
21387;DHT22;10854;45.922;6.716;2022-07-01T06:08:11;14.00;99.90
21387;DHT22;10854;45.922;6.716;2022-07-01T06:10:40;14.00;99.90
21387;DHT22;10854;45.922;6.716;2022-07-01T06:13:09;14.00;99.90
21387;DHT22;10854;45.922;6.716;2022-07-01T06:15:39;14.00;99.90
21387;DHT22;10854;45.922;6.716;2022-07-01T06:18:09;13.90;99.90
21387;DHT22;10854;45.922;6.716;2022-07-01T06:20:43;13.90;99.90
21387;DHT22;10854;45.922;6.716;2022-07-01T06:23:28;13.90;99.90
21387;DHT22;10854;45.922;6.716;2022-07-01T06:26:02;13.90;99.90
21387;DHT22;10854;45.922;6.716;2022-07-01T06:28:33;13.80;99.90
21387;DHT22;10854;45.922;6.716;2022-07-01T06:31:03;13.80;99.90
21387;DHT22;10854;45.922;6.716;2022-07-01T06:33:37;13.80;99.90
21387;DHT22;10854;45.922;6.716;2022-07-01T06:36:14;13.80;99.90
21387;DHT22;10854;45.922;6.716;2022-07-01T06:38:47;13.80;99.90
21387;DHT22;10854;45.922;6.716;2022-07-01T06:41:17;13.90;99.90
21387;DHT22;10854;45.922;6.716;2022-07-01T06:43:57;14.00;99.90
21387;DHT22;10854;45.922;6.716;2022-07-01T06:46:26;14.10;99.90
21387;DHT22;10854;45.922;6.716;2022-07-01T06:48:55;14.20;99.90
21387;DHT22;10854;45.922;6.716;2022-07-01T06:51:27;14.30;99.90
21387;DHT22;10854;45.922;6.716;2022-07-01T06:53:56;14.40;99.90
21387;DHT22;10854;45.922;6.716;2022-07-01T06:56:25;14.50;99.90
21387;DHT22;10854;45.922;6.716;2022-07-01T06:58:53;14.70;99.90
21387;DHT22;10854;45.922;6.716;2022-07-01T07:01:22;14.90;99.90
21387;DHT22;10854;45.922;6.716;2022-07-01T07:03:51;15.10;99.90
21387;DHT22;10854;45.922;6.716;2022-07-01T07:06:20;15.50;99.90
21387;DHT22;10854;45.922;6.716;2022-07-01T07:08:49;15.80;99.90
21387;DHT22;10854;45.922;6.716;2022-07-01T07:11:18;16.20;99.90
21387;DHT22;10854;45.922;6.716;2022-07-01T07:13:48;16.60;99.90
21387;DHT22;10854;45.922;6.716;2022-07-01T07:16:17;16.90;99.90
21387;DHT22;10854;45.922;6.716;2022-07-01T07:18:49;17.10;99.90
21387;DHT22;10854;45.922;6.716;2022-07-01T07:21:20;17.40;99.90
21387;DHT22;10854;45.922;6.716;2022-07-01T07:23:48;17.40;99.90
21387;DHT22;10854;45.922;6.716;2022-07-01T07:26:18;17.40;99.90
21387;DHT22;10854;45.922;6.716;2022-07-01T07:28:48;17.40;99.90
21387;DHT22;10854;45.922;6.716;2022-07-01T07:31:18;17.60;99.90
21387;DHT22;10854;45.922;6.716;2022-07-01T07:33:48;18.00;99.90
21387;DHT22;10854;45.922;6.716;2022-07-01T07:36:17;18.50;99.90
21387;DHT22;10854;45.922;6.716;2022-07-01T07:38:46;18.90;99.90
21387;DHT22;10854;45.922;6.716;2022-07-01T07:41:15;19.30;99.90
21387;DHT22;10854;45.922;6.716;2022-07-01T07:43:46;19.80;99.90
21387;DHT22;10854;45.922;6.716;2022-07-01T07:46:16;20.60;99.90
21387;DHT22;10854;45.922;6.716;2022-07-01T07:48:45;21.40;99.90
21387;DHT22;10854;45.922;6.716;2022-07-01T07:51:14;22.10;97.30
21387;DHT22;10854;45.922;6.716;2022-07-01T07:53:48;22.70;94.30
21387;DHT22;10854;45.922;6.716;2022-07-01T07:56:16;23.10;91.20
21387;DHT22;10854;45.922;6.716;2022-07-01T07:58:45;23.30;88.10
21387;DHT22;10854;45.922;6.716;2022-07-01T08:01:14;23.60;87.50
21387;DHT22;10854;45.922;6.716;2022-07-01T08:03:43;24.10;83.20
21387;DHT22;10854;45.922;6.716;2022-07-01T08:06:13;24.30;79.50
21387;DHT22;10854;45.922;6.716;2022-07-01T08:08:42;24.00;77.30
21387;DHT22;10854;45.922;6.716;2022-07-01T08:11:10;24.20;77.90
21387;DHT22;10854;45.922;6.716;2022-07-01T08:13:40;24.20;74.80
21387;DHT22;10854;45.922;6.716;2022-07-01T08:16:09;24.40;73.30
21387;DHT22;10854;45.922;6.716;2022-07-01T08:18:40;24.60;72.20
21387;DHT22;10854;45.922;6.716;2022-07-01T08:21:10;25.00;72.30
21387;DHT22;10854;45.922;6.716;2022-07-01T08:23:39;25.30;70.70
21387;DHT22;10854;45.922;6.716;2022-07-01T08:26:07;25.50;69.60
21387;DHT22;10854;45.922;6.716;2022-07-01T08:28:37;26.00;69.30
21387;DHT22;10854;45.922;6.716;2022-07-01T08:31:05;26.60;68.70
21387;DHT22;10854;45.922;6.716;2022-07-01T08:33:34;27.30;65.90
21387;DHT22;10854;45.922;6.716;2022-07-01T08:36:03;28.00;64.70
21387;DHT22;10854;45.922;6.716;2022-07-01T08:38:32;28.20;56.90
21387;DHT22;10854;45.922;6.716;2022-07-01T08:41:02;27.90;57.30
21387;DHT22;10854;45.922;6.716;2022-07-01T08:43:33;26.90;57.30
21387;DHT22;10854;45.922;6.716;2022-07-01T08:46:02;25.90;59.40
21387;DHT22;10854;45.922;6.716;2022-07-01T08:48:31;24.90;61.30
21387;DHT22;10854;45.922;6.716;2022-07-01T08:51:00;24.00;63.00
21387;DHT22;10854;45.922;6.716;2022-07-01T08:53:32;23.30;64.80
21387;DHT22;10854;45.922;6.716;2022-07-01T08:56:00;23.00;66.60
21387;DHT22;10854;45.922;6.716;2022-07-01T08:58:51;23.30;68.00
21387;DHT22;10854;45.922;6.716;2022-07-01T09:01:22;23.60;68.30
21387;DHT22;10854;45.922;6.716;2022-07-01T09:03:53;23.60;67.20
21387;DHT22;10854;45.922;6.716;2022-07-01T09:06:27;23.30;67.40
21387;DHT22;10854;45.922;6.716;2022-07-01T09:09:13;23.00;68.10
21387;DHT22;10854;45.922;6.716;2022-07-01T09:11:47;22.60;69.80
21387;DHT22;10854;45.922;6.716;2022-07-01T09:14:26;22.40;70.90
21387;DHT22;10854;45.922;6.716;2022-07-01T09:16:58;22.20;70.60
21387;DHT22;10854;45.922;6.716;2022-07-01T09:19:28;22.10;71.20
21387;DHT22;10854;45.922;6.716;2022-07-01T09:21:59;22.00;71.40
21387;DHT22;10854;45.922;6.716;2022-07-01T09:24:37;22.00;71.60
21387;DHT22;10854;45.922;6.716;2022-07-01T09:27:10;22.00;72.20
21387;DHT22;10854;45.922;6.716;2022-07-01T09:29:43;22.10;73.10
21387;DHT22;10854;45.922;6.716;2022-07-01T09:32:16;22.10;72.80
21387;DHT22;10854;45.922;6.716;2022-07-01T09:34:50;22.00;71.50
21387;DHT22;10854;45.922;6.716;2022-07-01T09:37:22;21.90;71.70
21387;DHT22;10854;45.922;6.716;2022-07-01T09:39:55;21.90;72.60
21387;DHT22;10854;45.922;6.716;2022-07-01T09:42:26;21.90;72.70
21387;DHT22;10854;45.922;6.716;2022-07-01T09:44:57;21.70;72.20
21387;DHT22;10854;45.922;6.716;2022-07-01T09:47:30;21.60;72.50
21387;DHT22;10854;45.922;6.716;2022-07-01T09:49:59;21.40;72.40
21387;DHT22;10854;45.922;6.716;2022-07-01T09:52:29;21.30;72.70
21387;DHT22;10854;45.922;6.716;2022-07-01T09:54:57;21.20;73.20
21387;DHT22;10854;45.922;6.716;2022-07-01T09:57:26;21.10;73.90
21387;DHT22;10854;45.922;6.716;2022-07-01T09:59:55;20.90;74.00
21387;DHT22;10854;45.922;6.716;2022-07-01T10:02:24;20.90;74.90
21387;DHT22;10854;45.922;6.716;2022-07-01T10:05:03;20.80;75.30
21387;DHT22;10854;45.922;6.716;2022-07-01T10:13:27;20.40;77.00
21387;DHT22;10854;45.922;6.716;2022-07-01T10:16:03;20.40;76.70
21387;DHT22;10854;45.922;6.716;2022-07-01T10:18:31;20.30;76.70
21387;DHT22;10854;45.922;6.716;2022-07-01T10:21:00;20.20;75.70
21387;DHT22;10854;45.922;6.716;2022-07-01T10:23:42;20.10;76.10
21387;DHT22;10854;45.922;6.716;2022-07-01T10:26:11;20.00;76.60
21387;DHT22;10854;45.922;6.716;2022-07-01T10:28:43;20.00;76.80
21387;DHT22;10854;45.922;6.716;2022-07-01T10:31:16;19.80;76.80
21387;DHT22;10854;45.922;6.716;2022-07-01T10:41:34;20.00;78.30
21387;DHT22;10854;45.922;6.716;2022-07-01T10:44:05;20.10;76.70
21387;DHT22;10854;45.922;6.716;2022-07-01T10:49:19;20.40;75.00
21387;DHT22;10854;45.922;6.716;2022-07-01T10:51:56;20.50;74.80
21387;DHT22;10854;45.922;6.716;2022-07-01T10:57:22;20.80;74.00
21387;DHT22;10854;45.922;6.716;2022-07-01T11:02:31;21.10;72.40
21387;DHT22;10854;45.922;6.716;2022-07-01T11:07:32;21.50;73.30
21387;DHT22;10854;45.922;6.716;2022-07-01T11:10:04;21.60;71.30
21387;DHT22;10854;45.922;6.716;2022-07-01T11:12:33;21.60;72.50
21387;DHT22;10854;45.922;6.716;2022-07-01T11:15:04;21.60;72.50
21387;DHT22;10854;45.922;6.716;2022-07-01T11:17:36;21.80;72.10
21387;DHT22;10854;45.922;6.716;2022-07-01T11:20:10;21.90;71.70
21387;DHT22;10854;45.922;6.716;2022-07-01T11:22:38;22.10;70.10
21387;DHT22;10854;45.922;6.716;2022-07-01T11:25:11;22.40;70.40
21387;DHT22;10854;45.922;6.716;2022-07-01T11:27:45;22.50;68.80
21387;DHT22;10854;45.922;6.716;2022-07-01T11:30:15;22.50;68.50
21387;DHT22;10854;45.922;6.716;2022-07-01T11:32:55;22.40;68.00
21387;DHT22;10854;45.922;6.716;2022-07-01T11:35:29;22.50;67.80
21387;DHT22;10854;45.922;6.716;2022-07-01T11:38:18;22.60;68.20
21387;DHT22;10854;45.922;6.716;2022-07-01T11:41:08;22.80;67.10
21387;DHT22;10854;45.922;6.716;2022-07-01T11:43:39;23.00;66.50
21387;DHT22;10854;45.922;6.716;2022-07-01T11:46:08;23.20;66.40
21387;DHT22;10854;45.922;6.716;2022-07-01T11:48:44;23.70;64.90
21387;DHT22;10854;45.922;6.716;2022-07-01T11:51:19;23.90;62.60
21387;DHT22;10854;45.922;6.716;2022-07-01T11:53:50;24.40;63.10
21387;DHT22;10854;45.922;6.716;2022-07-01T11:56:40;25.00;61.70
21387;DHT22;10854;45.922;6.716;2022-07-01T11:59:12;25.60;59.80
21387;DHT22;10854;45.922;6.716;2022-07-01T12:01:40;25.90;58.70
21387;DHT22;10854;45.922;6.716;2022-07-01T12:04:10;26.10;58.20
21387;DHT22;10854;45.922;6.716;2022-07-01T12:06:40;26.40;58.20
21387;DHT22;10854;45.922;6.716;2022-07-01T12:09:15;26.40;57.70
21387;DHT22;10854;45.922;6.716;2022-07-01T12:11:48;26.30;56.60
21387;DHT22;10854;45.922;6.716;2022-07-01T12:14:35;26.30;57.60
21387;DHT22;10854;45.922;6.716;2022-07-01T12:17:06;26.90;56.60
21387;DHT22;10854;45.922;6.716;2022-07-01T12:19:41;27.10;55.50
21387;DHT22;10854;45.922;6.716;2022-07-01T12:22:12;27.40;55.80
21387;DHT22;10854;45.922;6.716;2022-07-01T12:24:42;27.70;53.60
21387;DHT22;10854;45.922;6.716;2022-07-01T12:27:11;27.50;53.10
21387;DHT22;10854;45.922;6.716;2022-07-01T12:29:54;27.30;53.10
21387;DHT22;10854;45.922;6.716;2022-07-01T12:32:26;27.20;53.80
21387;DHT22;10854;45.922;6.716;2022-07-01T12:35:04;27.30;52.90
21387;DHT22;10854;45.922;6.716;2022-07-01T12:37:37;27.30;53.60
21387;DHT22;10854;45.922;6.716;2022-07-01T12:40:18;27.20;53.60
21387;DHT22;10854;45.922;6.716;2022-07-01T12:42:48;27.00;54.20
21387;DHT22;10854;45.922;6.716;2022-07-01T12:45:22;26.80;54.80
21387;DHT22;10854;45.922;6.716;2022-07-01T12:47:57;26.60;54.80
21387;DHT22;10854;45.922;6.716;2022-07-01T12:50:28;26.20;55.10
21387;DHT22;10854;45.922;6.716;2022-07-01T12:53:03;26.10;55.70
21387;DHT22;10854;45.922;6.716;2022-07-01T12:55:40;25.80;55.30
21387;DHT22;10854;45.922;6.716;2022-07-01T12:58:11;25.40;56.00
21387;DHT22;10854;45.922;6.716;2022-07-01T13:00:42;25.20;56.30
21387;DHT22;10854;45.922;6.716;2022-07-01T13:03:11;25.10;56.30
21387;DHT22;10854;45.922;6.716;2022-07-01T13:05:40;25.00;56.50
21387;DHT22;10854;45.922;6.716;2022-07-01T13:08:09;24.90;56.80
21387;DHT22;10854;45.922;6.716;2022-07-01T13:10:39;24.90;56.60
21387;DHT22;10854;45.922;6.716;2022-07-01T13:13:09;25.10;56.70
21387;DHT22;10854;45.922;6.716;2022-07-01T13:15:38;25.10;55.70
21387;DHT22;10854;45.922;6.716;2022-07-01T13:18:07;25.20;56.00
21387;DHT22;10854;45.922;6.716;2022-07-01T13:20:37;25.20;56.10
21387;DHT22;10854;45.922;6.716;2022-07-01T13:23:07;25.20;56.10
21387;DHT22;10854;45.922;6.716;2022-07-01T13:25:36;25.00;56.00
21387;DHT22;10854;45.922;6.716;2022-07-01T13:28:05;24.90;56.50
21387;DHT22;10854;45.922;6.716;2022-07-01T13:30:34;25.00;56.60
21387;DHT22;10854;45.922;6.716;2022-07-01T13:33:04;25.00;56.80
21387;DHT22;10854;45.922;6.716;2022-07-01T13:35:33;25.20;56.70
21387;DHT22;10854;45.922;6.716;2022-07-01T13:38:02;25.30;56.60
21387;DHT22;10854;45.922;6.716;2022-07-01T13:40:31;25.40;56.70
21387;DHT22;10854;45.922;6.716;2022-07-01T13:43:00;25.60;57.20
21387;DHT22;10854;45.922;6.716;2022-07-01T13:45:28;25.90;57.60
21387;DHT22;10854;45.922;6.716;2022-07-01T13:47:57;26.10;55.50
21387;DHT22;10854;45.922;6.716;2022-07-01T13:50:25;25.90;54.40
21387;DHT22;10854;45.922;6.716;2022-07-01T13:52:54;25.60;54.00
21387;DHT22;10854;45.922;6.716;2022-07-01T13:55:24;25.60;55.10
21387;DHT22;10854;45.922;6.716;2022-07-01T13:57:52;25.80;55.10
21387;DHT22;10854;45.922;6.716;2022-07-01T14:00:21;25.90;54.50
21387;DHT22;10854;45.922;6.716;2022-07-01T14:02:49;26.10;54.90
21387;DHT22;10854;45.922;6.716;2022-07-01T14:05:18;26.40;55.30
21387;DHT22;10854;45.922;6.716;2022-07-01T14:07:47;26.60;54.60
21387;DHT22;10854;45.922;6.716;2022-07-01T14:10:15;26.70;53.30
21387;DHT22;10854;45.922;6.716;2022-07-01T14:12:44;27.10;53.20
21387;DHT22;10854;45.922;6.716;2022-07-01T14:15:12;27.70;52.40
21387;DHT22;10854;45.922;6.716;2022-07-01T14:17:41;28.30;50.60
21387;DHT22;10854;45.922;6.716;2022-07-01T14:20:12;28.50;49.40
21387;DHT22;10854;45.922;6.716;2022-07-01T14:22:41;28.50;49.50
21387;DHT22;10854;45.922;6.716;2022-07-01T14:25:09;28.30;49.80
21387;DHT22;10854;45.922;6.716;2022-07-01T14:27:38;28.30;50.00
21387;DHT22;10854;45.922;6.716;2022-07-01T14:30:08;28.40;49.70
21387;DHT22;10854;45.922;6.716;2022-07-01T14:32:37;28.60;49.90
21387;DHT22;10854;45.922;6.716;2022-07-01T14:35:06;28.80;49.80
21387;DHT22;10854;45.922;6.716;2022-07-01T14:37:35;28.90;48.90
21387;DHT22;10854;45.922;6.716;2022-07-01T14:40:06;28.80;48.40
21387;DHT22;10854;45.922;6.716;2022-07-01T14:42:35;28.60;48.80
21387;DHT22;10854;45.922;6.716;2022-07-01T14:45:05;28.50;48.90
21387;DHT22;10854;45.922;6.716;2022-07-01T14:47:34;28.50;49.20
21387;DHT22;10854;45.922;6.716;2022-07-01T14:50:03;28.40;49.50
21387;DHT22;10854;45.922;6.716;2022-07-01T14:52:33;28.40;49.60
21387;DHT22;10854;45.922;6.716;2022-07-01T14:55:01;28.10;49.30
21387;DHT22;10854;45.922;6.716;2022-07-01T14:57:30;28.00;49.60
21387;DHT22;10854;45.922;6.716;2022-07-01T14:59:59;28.00;50.00
21387;DHT22;10854;45.922;6.716;2022-07-01T15:02:28;28.40;50.30
21387;DHT22;10854;45.922;6.716;2022-07-01T15:04:57;28.80;49.50
21387;DHT22;10854;45.922;6.716;2022-07-01T15:07:25;29.10;49.00
21387;DHT22;10854;45.922;6.716;2022-07-01T15:09:56;29.40;48.10
21387;DHT22;10854;45.922;6.716;2022-07-01T15:12:28;29.30;47.80
21387;DHT22;10854;45.922;6.716;2022-07-01T15:14:56;29.10;48.20
21387;DHT22;10854;45.922;6.716;2022-07-01T15:17:28;29.10;48.90
21387;DHT22;10854;45.922;6.716;2022-07-01T15:19:57;29.30;48.80
21387;DHT22;10854;45.922;6.716;2022-07-01T15:22:25;29.30;48.10
21387;DHT22;10854;45.922;6.716;2022-07-01T15:24:54;29.20;48.00
21387;DHT22;10854;45.922;6.716;2022-07-01T15:27:22;29.10;48.00
21387;DHT22;10854;45.922;6.716;2022-07-01T15:29:51;29.00;47.70
21387;DHT22;10854;45.922;6.716;2022-07-01T15:32:20;28.90;47.80
21387;DHT22;10854;45.922;6.716;2022-07-01T15:34:48;28.80;48.50
21387;DHT22;10854;45.922;6.716;2022-07-01T15:37:17;28.70;48.40
21387;DHT22;10854;45.922;6.716;2022-07-01T15:39:46;28.70;48.10
21387;DHT22;10854;45.922;6.716;2022-07-01T15:42:17;28.60;47.80
21387;DHT22;10854;45.922;6.716;2022-07-01T15:44:46;28.60;48.30
21387;DHT22;10854;45.922;6.716;2022-07-01T15:47:14;28.50;48.40
21387;DHT22;10854;45.922;6.716;2022-07-01T15:50:01;28.30;48.40
21387;DHT22;10854;45.922;6.716;2022-07-01T15:52:30;28.10;48.70
21387;DHT22;10854;45.922;6.716;2022-07-01T15:54:59;28.00;48.80
21387;DHT22;10854;45.922;6.716;2022-07-01T15:57:28;28.00;48.80
21387;DHT22;10854;45.922;6.716;2022-07-01T15:59:59;28.00;49.30
21387;DHT22;10854;45.922;6.716;2022-07-01T16:02:27;28.10;49.80
21387;DHT22;10854;45.922;6.716;2022-07-01T16:04:56;28.20;49.10
21387;DHT22;10854;45.922;6.716;2022-07-01T16:07:25;28.20;48.60
21387;DHT22;10854;45.922;6.716;2022-07-01T16:10:05;28.20;48.50
21387;DHT22;10854;45.922;6.716;2022-07-01T16:12:34;28.20;48.50
21387;DHT22;10854;45.922;6.716;2022-07-01T16:15:05;28.40;49.00
21387;DHT22;10854;45.922;6.716;2022-07-01T16:17:36;28.60;48.70
21387;DHT22;10854;45.922;6.716;2022-07-01T16:20:05;28.60;47.90
21387;DHT22;10854;45.922;6.716;2022-07-01T16:22:37;28.60;48.20
21387;DHT22;10854;45.922;6.716;2022-07-01T16:25:06;28.50;47.80
21387;DHT22;10854;45.922;6.716;2022-07-01T16:27:37;28.10;47.10
21387;DHT22;10854;45.922;6.716;2022-07-01T16:30:06;27.70;48.00
21387;DHT22;10854;45.922;6.716;2022-07-01T16:32:35;27.50;48.80
21387;DHT22;10854;45.922;6.716;2022-07-01T16:35:04;27.50;49.50
21387;DHT22;10854;45.922;6.716;2022-07-01T16:37:35;27.50;48.80
21387;DHT22;10854;45.922;6.716;2022-07-01T16:40:16;27.30;48.40
21387;DHT22;10854;45.922;6.716;2022-07-01T16:42:49;27.20;49.10
21387;DHT22;10854;45.922;6.716;2022-07-01T16:45:20;27.10;48.90
21387;DHT22;10854;45.922;6.716;2022-07-01T16:47:54;26.90;49.40
21387;DHT22;10854;45.922;6.716;2022-07-01T16:50:26;26.50;49.70
21387;DHT22;10854;45.922;6.716;2022-07-01T16:52:57;26.30;50.00
21387;DHT22;10854;45.922;6.716;2022-07-01T16:55:29;26.20;50.30
21387;DHT22;10854;45.922;6.716;2022-07-01T16:58:04;26.20;50.50
21387;DHT22;10854;45.922;6.716;2022-07-01T17:00:35;26.10;50.60
21387;DHT22;10854;45.922;6.716;2022-07-01T17:03:04;26.00;51.20
21387;DHT22;10854;45.922;6.716;2022-07-01T17:05:33;26.00;51.20
21387;DHT22;10854;45.922;6.716;2022-07-01T17:08:02;25.90;51.50
21387;DHT22;10854;45.922;6.716;2022-07-01T17:10:31;25.90;51.50
21387;DHT22;10854;45.922;6.716;2022-07-01T17:13:02;25.70;51.30
21387;DHT22;10854;45.922;6.716;2022-07-01T17:15:31;25.60;51.80
21387;DHT22;10854;45.922;6.716;2022-07-01T17:18:00;25.60;51.70
21387;DHT22;10854;45.922;6.716;2022-07-01T17:20:28;25.60;52.10
21387;DHT22;10854;45.922;6.716;2022-07-01T17:24:04;25.60;52.40
21387;DHT22;10854;45.922;6.716;2022-07-01T17:26:30;25.70;52.00